sensor_id;sensor_type;location;lat;lon;timestamp;temperature;humidity
18805;DHT22;9530;48.930;9.526;2023-03-01T00:00:00;-0.20;99.90
18805;DHT22;9530;48.930;9.526;2023-03-01T00:02:27;-0.20;99.90
18805;DHT22;9530;48.930;9.526;2023-03-01T00:04:53;-0.20;99.90
18805;DHT22;9530;48.930;9.526;2023-03-01T00:07:20;-0.20;99.90
18805;DHT22;9530;48.930;9.526;2023-03-01T00:09:47;-0.30;99.90
18805;DHT22;9530;48.930;9.526;2023-03-01T00:12:15;-0.30;99.90
18805;DHT22;9530;48.930;9.526;2023-03-01T00:14:41;-0.30;99.90
18805;DHT22;9530;48.930;9.526;2023-03-01T00:17:08;-0.30;99.90
18805;DHT22;9530;48.930;9.526;2023-03-01T00:19:35;-0.30;99.90
18805;DHT22;9530;48.930;9.526;2023-03-01T00:22:02;-0.30;99.90
18805;DHT22;9530;48.930;9.526;2023-03-01T00:24:29;-0.30;99.90
18805;DHT22;9530;48.930;9.526;2023-03-01T00:26:56;-0.30;99.90
18805;DHT22;9530;48.930;9.526;2023-03-01T00:29:24;-0.30;99.90
18805;DHT22;9530;48.930;9.526;2023-03-01T00:31:51;-0.30;99.90
18805;DHT22;9530;48.930;9.526;2023-03-01T00:34:18;-0.30;99.90
18805;DHT22;9530;48.930;9.526;2023-03-01T00:36:45;-0.30;99.90
18805;DHT22;9530;48.930;9.526;2023-03-01T00:39:15;-0.30;99.90
18805;DHT22;9530;48.930;9.526;2023-03-01T00:41:42;-0.30;99.90
18805;DHT22;9530;48.930;9.526;2023-03-01T00:44:10;-0.40;99.90
18805;DHT22;9530;48.930;9.526;2023-03-01T00:46:38;-0.40;99.90
18805;DHT22;9530;48.930;9.526;2023-03-01T00:49:05;-0.40;99.90
18805;DHT22;9530;48.930;9.526;2023-03-01T00:51:32;-0.40;99.90
18805;DHT22;9530;48.930;9.526;2023-03-01T00:54:01;-0.40;99.90
18805;DHT22;9530;48.930;9.526;2023-03-01T00:56:28;-0.40;99.90
18805;DHT22;9530;48.930;9.526;2023-03-01T00:58:55;-0.40;99.90
18805;DHT22;9530;48.930;9.526;2023-03-01T01:01:24;-0.40;99.90
18805;DHT22;9530;48.930;9.526;2023-03-01T01:03:55;-0.40;99.90
18805;DHT22;9530;48.930;9.526;2023-03-01T01:06:24;-0.40;99.90
18805;DHT22;9530;48.930;9.526;2023-03-01T01:08:52;-0.40;99.90
18805;DHT22;9530;48.930;9.526;2023-03-01T01:11:20;-0.50;99.90
18805;DHT22;9530;48.930;9.526;2023-03-01T01:13:47;-0.50;99.90
18805;DHT22;9530;48.930;9.526;2023-03-01T01:16:16;-0.40;99.90
18805;DHT22;9530;48.930;9.526;2023-03-01T01:18:43;-0.40;99.90
18805;DHT22;9530;48.930;9.526;2023-03-01T01:21:14;-0.40;99.90
18805;DHT22;9530;48.930;9.526;2023-03-01T01:23:41;-0.40;99.90
18805;DHT22;9530;48.930;9.526;2023-03-01T01:26:10;-0.30;99.90
18805;DHT22;9530;48.930;9.526;2023-03-01T01:28:38;-0.30;99.90
18805;DHT22;9530;48.930;9.526;2023-03-01T01:31:05;-0.20;99.90
18805;DHT22;9530;48.930;9.526;2023-03-01T01:33:32;-0.10;99.90
18805;DHT22;9530;48.930;9.526;2023-03-01T01:35:59;-0.10;99.90
18805;DHT22;9530;48.930;9.526;2023-03-01T01:38:27;-0.10;99.90
18805;DHT22;9530;48.930;9.526;2023-03-01T01:40:53;-0.10;99.90
18805;DHT22;9530;48.930;9.526;2023-03-01T01:43:23;-0.10;99.90
18805;DHT22;9530;48.930;9.526;2023-03-01T01:45:50;0.00;99.90
18805;DHT22;9530;48.930;9.526;2023-03-01T01:48:18;0.00;99.90
18805;DHT22;9530;48.930;9.526;2023-03-01T01:50:50;0.00;99.90
18805;DHT22;9530;48.930;9.526;2023-03-01T01:53:19;0.00;99.90
18805;DHT22;9530;48.930;9.526;2023-03-01T01:55:52;0.10;99.90
18805;DHT22;9530;48.930;9.526;2023-03-01T01:58:21;0.10;99.90
18805;DHT22;9530;48.930;9.526;2023-03-01T02:00:48;0.20;99.90
18805;DHT22;9530;48.930;9.526;2023-03-01T02:03:18;0.10;99.90
18805;DHT22;9530;48.930;9.526;2023-03-01T02:05:51;0.10;99.90
18805;DHT22;9530;48.930;9.526;2023-03-01T02:08:21;0.10;99.90
18805;DHT22;9530;48.930;9.526;2023-03-01T02:10:51;0.20;99.90
18805;DHT22;9530;48.930;9.526;2023-03-01T02:13:19;0.20;99.90
18805;DHT22;9530;48.930;9.526;2023-03-01T02:15:46;0.20;99.90
18805;DHT22;9530;48.930;9.526;2023-03-01T02:18:17;0.20;99.90
18805;DHT22;9530;48.930;9.526;2023-03-01T02:20:50;0.20;99.90
18805;DHT22;9530;48.930;9.526;2023-03-01T02:23:22;0.20;99.90
18805;DHT22;9530;48.930;9.526;2023-03-01T02:25:54;0.10;99.90
18805;DHT22;9530;48.930;9.526;2023-03-01T02:28:26;0.10;99.90
18805;DHT22;9530;48.930;9.526;2023-03-01T02:30:53;0.20;99.90
18805;DHT22;9530;48.930;9.526;2023-03-01T02:33:39;0.20;99.90
18805;DHT22;9530;48.930;9.526;2023-03-01T02:36:09;0.10;99.90
18805;DHT22;9530;48.930;9.526;2023-03-01T02:38:36;0.10;99.90
18805;DHT22;9530;48.930;9.526;2023-03-01T02:41:05;0.10;99.90
18805;DHT22;9530;48.930;9.526;2023-03-01T02:43:34;0.10;99.90
18805;DHT22;9530;48.930;9.526;2023-03-01T02:46:04;0.10;99.90
18805;DHT22;9530;48.930;9.526;2023-03-01T02:48:40;0.10;99.90
18805;DHT22;9530;48.930;9.526;2023-03-01T02:51:14;0.00;99.90
18805;DHT22;9530;48.930;9.526;2023-03-01T02:53:49;0.00;99.90
18805;DHT22;9530;48.930;9.526;2023-03-01T02:56:19;0.00;99.90
18805;DHT22;9530;48.930;9.526;2023-03-01T02:58:47;0.00;99.90
18805;DHT22;9530;48.930;9.526;2023-03-01T03:01:17;0.00;99.90
18805;DHT22;9530;48.930;9.526;2023-03-01T03:03:43;0.00;99.90
18805;DHT22;9530;48.930;9.526;2023-03-01T03:06:10;0.00;99.90
18805;DHT22;9530;48.930;9.526;2023-03-01T03:08:36;0.00;99.90
18805;DHT22;9530;48.930;9.526;2023-03-01T03:11:03;0.00;99.90
18805;DHT22;9530;48.930;9.526;2023-03-01T03:13:30;0.00;99.90
18805;DHT22;9530;48.930;9.526;2023-03-01T03:15:58;0.00;99.90
18805;DHT22;9530;48.930;9.526;2023-03-01T03:18:25;0.00;99.90
18805;DHT22;9530;48.930;9.526;2023-03-01T03:20:53;0.00;99.90
18805;DHT22;9530;48.930;9.526;2023-03-01T03:23:20;0.00;99.90
18805;DHT22;9530;48.930;9.526;2023-03-01T03:25:48;0.00;99.90
18805;DHT22;9530;48.930;9.526;2023-03-01T03:28:16;0.00;99.90
18805;DHT22;9530;48.930;9.526;2023-03-01T03:30:43;0.10;99.90
18805;DHT22;9530;48.930;9.526;2023-03-01T03:33:12;0.10;99.90
18805;DHT22;9530;48.930;9.526;2023-03-01T03:35:41;0.10;99.90
18805;DHT22;9530;48.930;9.526;2023-03-01T03:38:10;0.10;99.90
18805;DHT22;9530;48.930;9.526;2023-03-01T03:40:43;0.00;99.90
18805;DHT22;9530;48.930;9.526;2023-03-01T03:43:11;0.10;99.90
18805;DHT22;9530;48.930;9.526;2023-03-01T03:45:39;0.10;99.90
18805;DHT22;9530;48.930;9.526;2023-03-01T03:48:07;0.10;99.90
18805;DHT22;9530;48.930;9.526;2023-03-01T03:50:36;0.10;99.90
18805;DHT22;9530;48.930;9.526;2023-03-01T03:53:05;0.10;99.90
18805;DHT22;9530;48.930;9.526;2023-03-01T03:55:32;0.10;99.90
18805;DHT22;9530;48.930;9.526;2023-03-01T03:57:59;0.10;99.90
18805;DHT22;9530;48.930;9.526;2023-03-01T04:00:33;0.00;99.90
18805;DHT22;9530;48.930;9.526;2023-03-01T04:03:00;0.10;99.90
18805;DHT22;9530;48.930;9.526;2023-03-01T04:05:27;0.10;99.90
18805;DHT22;9530;48.930;9.526;2023-03-01T04:07:56;0.00;99.90
18805;DHT22;9530;48.930;9.526;2023-03-01T04:10:35;0.10;99.90
18805;DHT22;9530;48.930;9.526;2023-03-01T04:13:03;0.10;99.90
18805;DHT22;9530;48.930;9.526;2023-03-01T04:15:31;0.10;99.90
18805;DHT22;9530;48.930;9.526;2023-03-01T04:17:58;0.10;99.90
18805;DHT22;9530;48.930;9.526;2023-03-01T04:20:27;0.10;99.90
18805;DHT22;9530;48.930;9.526;2023-03-01T04:22:59;0.10;99.90
18805;DHT22;9530;48.930;9.526;2023-03-01T04:25:36;0.10;99.90
18805;DHT22;9530;48.930;9.526;2023-03-01T04:28:03;0.00;99.90
18805;DHT22;9530;48.930;9.526;2023-03-01T04:30:30;0.00;99.90
18805;DHT22;9530;48.930;9.526;2023-03-01T04:33:01;0.00;99.90
18805;DHT22;9530;48.930;9.526;2023-03-01T04:35:28;0.00;99.90
18805;DHT22;9530;48.930;9.526;2023-03-01T04:37:54;0.00;99.90
18805;DHT22;9530;48.930;9.526;2023-03-01T04:40:23;0.00;99.90
18805;DHT22;9530;48.930;9.526;2023-03-01T04:42:50;0.00;99.90
18805;DHT22;9530;48.930;9.526;2023-03-01T04:45:17;0.00;99.90
18805;DHT22;9530;48.930;9.526;2023-03-01T04:47:45;0.00;99.90
18805;DHT22;9530;48.930;9.526;2023-03-01T04:50:15;0.00;99.90
18805;DHT22;9530;48.930;9.526;2023-03-01T04:52:42;0.00;99.90
18805;DHT22;9530;48.930;9.526;2023-03-01T04:55:10;0.00;99.90
18805;DHT22;9530;48.930;9.526;2023-03-01T04:57:38;0.00;99.90
18805;DHT22;9530;48.930;9.526;2023-03-01T05:00:07;-0.10;99.90
18805;DHT22;9530;48.930;9.526;2023-03-01T05:02:46;-0.10;99.90
18805;DHT22;9530;48.930;9.526;2023-03-01T05:05:14;-0.10;99.90
18805;DHT22;9530;48.930;9.526;2023-03-01T05:07:40;0.00;99.90
18805;DHT22;9530;48.930;9.526;2023-03-01T05:10:08;0.00;99.90
18805;DHT22;9530;48.930;9.526;2023-03-01T05:12:35;0.00;99.90
18805;DHT22;9530;48.930;9.526;2023-03-01T05:15:05;0.00;99.90
18805;DHT22;9530;48.930;9.526;2023-03-01T05:17:32;0.00;99.90
18805;DHT22;9530;48.930;9.526;2023-03-01T05:19:59;-0.10;99.90
18805;DHT22;9530;48.930;9.526;2023-03-01T05:22:26;0.00;99.90
18805;DHT22;9530;48.930;9.526;2023-03-01T05:24:53;0.10;99.90
18805;DHT22;9530;48.930;9.526;2023-03-01T05:27:20;0.20;99.90
18805;DHT22;9530;48.930;9.526;2023-03-01T05:29:47;0.20;99.90
18805;DHT22;9530;48.930;9.526;2023-03-01T05:32:15;0.20;99.90
18805;DHT22;9530;48.930;9.526;2023-03-01T05:34:42;0.10;99.90
18805;DHT22;9530;48.930;9.526;2023-03-01T05:37:09;0.20;99.90
18805;DHT22;9530;48.930;9.526;2023-03-01T05:39:36;0.10;99.90
18805;DHT22;9530;48.930;9.526;2023-03-01T05:42:03;0.10;99.90
18805;DHT22;9530;48.930;9.526;2023-03-01T05:44:30;0.20;99.90
18805;DHT22;9530;48.930;9.526;2023-03-01T05:46:57;0.20;99.90
18805;DHT22;9530;48.930;9.526;2023-03-01T05:49:25;0.20;99.90
18805;DHT22;9530;48.930;9.526;2023-03-01T05:51:52;0.10;99.90
18805;DHT22;9530;48.930;9.526;2023-03-01T05:54:20;0.10;99.90
18805;DHT22;9530;48.930;9.526;2023-03-01T05:56:47;0.10;99.90
18805;DHT22;9530;48.930;9.526;2023-03-01T05:59:14;0.10;99.90
18805;DHT22;9530;48.930;9.526;2023-03-01T06:01:42;0.00;99.90
18805;DHT22;9530;48.930;9.526;2023-03-01T06:04:08;-0.10;99.90
18805;DHT22;9530;48.930;9.526;2023-03-01T06:06:36;-0.10;99.90
18805;DHT22;9530;48.930;9.526;2023-03-01T06:09:03;-0.20;99.90
18805;DHT22;9530;48.930;9.526;2023-03-01T06:11:33;-0.30;99.90
18805;DHT22;9530;48.930;9.526;2023-03-01T06:14:00;-0.40;99.90
18805;DHT22;9530;48.930;9.526;2023-03-01T06:16:27;-0.50;99.90
18805;DHT22;9530;48.930;9.526;2023-03-01T06:18:53;-0.50;99.90
18805;DHT22;9530;48.930;9.526;2023-03-01T06:21:20;-0.60;99.90
18805;DHT22;9530;48.930;9.526;2023-03-01T06:23:48;-0.60;99.90
18805;DHT22;9530;48.930;9.526;2023-03-01T06:26:15;-0.70;99.90
18805;DHT22;9530;48.930;9.526;2023-03-01T06:28:41;-0.70;99.90
18805;DHT22;9530;48.930;9.526;2023-03-01T06:31:11;-0.70;99.90
18805;DHT22;9530;48.930;9.526;2023-03-01T06:33:38;-0.70;99.90
18805;DHT22;9530;48.930;9.526;2023-03-01T06:36:05;-0.70;99.90
18805;DHT22;9530;48.930;9.526;2023-03-01T06:38:32;-0.70;99.90
18805;DHT22;9530;48.930;9.526;2023-03-01T06:41:00;-0.70;99.90
18805;DHT22;9530;48.930;9.526;2023-03-01T06:43:27;-0.60;99.90
18805;DHT22;9530;48.930;9.526;2023-03-01T06:45:54;-0.60;99.90
18805;DHT22;9530;48.930;9.526;2023-03-01T06:48:20;-0.50;99.90
18805;DHT22;9530;48.930;9.526;2023-03-01T06:50:47;-0.50;99.90
18805;DHT22;9530;48.930;9.526;2023-03-01T06:53:13;-0.50;99.90
18805;DHT22;9530;48.930;9.526;2023-03-01T06:55:40;-0.50;99.90
18805;DHT22;9530;48.930;9.526;2023-03-01T06:58:09;-0.40;99.90
18805;DHT22;9530;48.930;9.526;2023-03-01T07:00:36;-0.40;99.90
18805;DHT22;9530;48.930;9.526;2023-03-01T07:03:03;-0.40;99.90
18805;DHT22;9530;48.930;9.526;2023-03-01T07:05:30;-0.40;99.90
18805;DHT22;9530;48.930;9.526;2023-03-01T07:07:56;-0.40;99.90
18805;DHT22;9530;48.930;9.526;2023-03-01T07:10:23;-0.30;99.90
18805;DHT22;9530;48.930;9.526;2023-03-01T07:12:50;-0.40;99.90
18805;DHT22;9530;48.930;9.526;2023-03-01T07:15:18;-0.40;99.90
18805;DHT22;9530;48.930;9.526;2023-03-01T07:17:45;-0.30;99.90
18805;DHT22;9530;48.930;9.526;2023-03-01T07:20:13;-0.30;99.90
18805;DHT22;9530;48.930;9.526;2023-03-01T07:22:40;-0.20;99.90
18805;DHT22;9530;48.930;9.526;2023-03-01T07:25:08;-0.20;99.90
18805;DHT22;9530;48.930;9.526;2023-03-01T07:27:35;-0.20;99.90
18805;DHT22;9530;48.930;9.526;2023-03-01T07:30:03;-0.20;99.90
18805;DHT22;9530;48.930;9.526;2023-03-01T07:32:31;-0.20;99.90
18805;DHT22;9530;48.930;9.526;2023-03-01T07:34:57;-0.10;99.90
18805;DHT22;9530;48.930;9.526;2023-03-01T07:37:24;-0.10;99.90
18805;DHT22;9530;48.930;9.526;2023-03-01T07:39:51;0.00;99.90
18805;DHT22;9530;48.930;9.526;2023-03-01T07:42:17;0.10;99.90
18805;DHT22;9530;48.930;9.526;2023-03-01T07:44:44;0.00;99.90
18805;DHT22;9530;48.930;9.526;2023-03-01T07:47:11;0.10;99.90
18805;DHT22;9530;48.930;9.526;2023-03-01T07:49:39;0.10;99.90
18805;DHT22;9530;48.930;9.526;2023-03-01T07:52:05;0.10;99.90
18805;DHT22;9530;48.930;9.526;2023-03-01T07:54:32;0.10;99.90
18805;DHT22;9530;48.930;9.526;2023-03-01T07:56:59;0.20;99.90
18805;DHT22;9530;48.930;9.526;2023-03-01T07:59:25;0.20;99.90
18805;DHT22;9530;48.930;9.526;2023-03-01T08:01:54;0.30;99.90
18805;DHT22;9530;48.930;9.526;2023-03-01T08:04:21;0.40;99.90
18805;DHT22;9530;48.930;9.526;2023-03-01T08:06:51;0.50;99.90
18805;DHT22;9530;48.930;9.526;2023-03-01T08:09:18;0.60;99.90
18805;DHT22;9530;48.930;9.526;2023-03-01T08:11:45;0.80;99.90
18805;DHT22;9530;48.930;9.526;2023-03-01T08:14:11;0.70;99.90
18805;DHT22;9530;48.930;9.526;2023-03-01T08:16:38;0.80;99.90
18805;DHT22;9530;48.930;9.526;2023-03-01T08:19:05;1.00;99.90
18805;DHT22;9530;48.930;9.526;2023-03-01T08:21:32;1.00;99.90
18805;DHT22;9530;48.930;9.526;2023-03-01T08:24:01;1.10;99.90
18805;DHT22;9530;48.930;9.526;2023-03-01T08:26:28;1.10;99.90
18805;DHT22;9530;48.930;9.526;2023-03-01T08:28:55;1.10;99.90
18805;DHT22;9530;48.930;9.526;2023-03-01T08:31:24;1.00;99.90
18805;DHT22;9530;48.930;9.526;2023-03-01T08:33:53;1.10;99.90
18805;DHT22;9530;48.930;9.526;2023-03-01T08:36:22;1.10;99.90
18805;DHT22;9530;48.930;9.526;2023-03-01T08:38:49;1.10;99.90
18805;DHT22;9530;48.930;9.526;2023-03-01T08:41:17;1.20;99.90
18805;DHT22;9530;48.930;9.526;2023-03-01T08:43:44;1.20;99.90
18805;DHT22;9530;48.930;9.526;2023-03-01T08:46:11;1.30;99.90
18805;DHT22;9530;48.930;9.526;2023-03-01T08:48:39;1.50;99.90
18805;DHT22;9530;48.930;9.526;2023-03-01T08:51:09;1.60;99.90
18805;DHT22;9530;48.930;9.526;2023-03-01T08:53:36;1.70;99.90
18805;DHT22;9530;48.930;9.526;2023-03-01T08:56:03;1.80;99.90
18805;DHT22;9530;48.930;9.526;2023-03-01T08:58:32;1.80;99.90
18805;DHT22;9530;48.930;9.526;2023-03-01T09:00:59;1.80;99.90
18805;DHT22;9530;48.930;9.526;2023-03-01T09:03:26;2.00;99.90
18805;DHT22;9530;48.930;9.526;2023-03-01T09:05:53;2.20;99.90
18805;DHT22;9530;48.930;9.526;2023-03-01T09:08:26;2.20;99.90
18805;DHT22;9530;48.930;9.526;2023-03-01T09:10:52;2.20;99.90
18805;DHT22;9530;48.930;9.526;2023-03-01T09:13:19;2.20;99.90
18805;DHT22;9530;48.930;9.526;2023-03-01T09:15:47;2.30;99.90
18805;DHT22;9530;48.930;9.526;2023-03-01T09:18:13;2.40;99.90
18805;DHT22;9530;48.930;9.526;2023-03-01T09:20:40;2.60;99.90
18805;DHT22;9530;48.930;9.526;2023-03-01T09:23:07;2.70;99.90
18805;DHT22;9530;48.930;9.526;2023-03-01T09:25:34;2.90;99.90
18805;DHT22;9530;48.930;9.526;2023-03-01T09:28:01;2.80;99.90
18805;DHT22;9530;48.930;9.526;2023-03-01T09:30:27;2.90;99.90
18805;DHT22;9530;48.930;9.526;2023-03-01T09:32:56;3.00;99.90
18805;DHT22;9530;48.930;9.526;2023-03-01T09:35:23;3.00;99.90
18805;DHT22;9530;48.930;9.526;2023-03-01T09:37:49;3.10;99.90
18805;DHT22;9530;48.930;9.526;2023-03-01T09:40:18;3.30;99.90
18805;DHT22;9530;48.930;9.526;2023-03-01T09:42:54;3.50;99.90
18805;DHT22;9530;48.930;9.526;2023-03-01T09:45:27;3.70;99.90
18805;DHT22;9530;48.930;9.526;2023-03-01T09:48:00;3.90;99.90
18805;DHT22;9530;48.930;9.526;2023-03-01T09:50:32;4.00;99.90
18805;DHT22;9530;48.930;9.526;2023-03-01T09:53:02;4.20;99.90
18805;DHT22;9530;48.930;9.526;2023-03-01T09:55:33;4.50;99.90
18805;DHT22;9530;48.930;9.526;2023-03-01T09:58:24;4.70;99.90
18805;DHT22;9530;48.930;9.526;2023-03-01T10:00:56;4.70;99.90
18805;DHT22;9530;48.930;9.526;2023-03-01T10:03:27;4.90;99.90
18805;DHT22;9530;48.930;9.526;2023-03-01T10:05:59;5.10;99.90
18805;DHT22;9530;48.930;9.526;2023-03-01T10:08:36;5.20;99.90
18805;DHT22;9530;48.930;9.526;2023-03-01T10:11:05;5.20;99.90
18805;DHT22;9530;48.930;9.526;2023-03-01T10:13:47;5.30;99.90
18805;DHT22;9530;48.930;9.526;2023-03-01T10:16:22;5.30;99.90
18805;DHT22;9530;48.930;9.526;2023-03-01T10:18:55;5.20;99.90
18805;DHT22;9530;48.930;9.526;2023-03-01T10:21:26;5.20;99.90
18805;DHT22;9530;48.930;9.526;2023-03-01T10:23:53;5.20;99.90
18805;DHT22;9530;48.930;9.526;2023-03-01T10:26:32;5.30;99.90
18805;DHT22;9530;48.930;9.526;2023-03-01T10:29:05;5.50;99.90
18805;DHT22;9530;48.930;9.526;2023-03-01T10:31:38;5.50;99.90
18805;DHT22;9530;48.930;9.526;2023-03-01T10:34:15;5.60;99.90
18805;DHT22;9530;48.930;9.526;2023-03-01T10:36:44;5.60;99.90
18805;DHT22;9530;48.930;9.526;2023-03-01T10:39:16;5.70;99.90
18805;DHT22;9530;48.930;9.526;2023-03-01T10:41:58;5.90;99.90
18805;DHT22;9530;48.930;9.526;2023-03-01T10:44:42;6.00;99.90
18805;DHT22;9530;48.930;9.526;2023-03-01T10:47:15;6.00;99.90
18805;DHT22;9530;48.930;9.526;2023-03-01T10:49:54;6.10;99.90
18805;DHT22;9530;48.930;9.526;2023-03-01T10:52:23;6.10;99.90
18805;DHT22;9530;48.930;9.526;2023-03-01T10:54:53;6.10;99.90
18805;DHT22;9530;48.930;9.526;2023-03-01T10:57:44;6.30;99.90
18805;DHT22;9530;48.930;9.526;2023-03-01T11:30:22;6.50;99.90
18805;DHT22;9530;48.930;9.526;2023-03-01T11:33:01;6.50;99.90
18805;DHT22;9530;48.930;9.526;2023-03-01T11:35:29;6.60;99.90
18805;DHT22;9530;48.930;9.526;2023-03-01T11:38:09;6.60;99.90
18805;DHT22;9530;48.930;9.526;2023-03-01T11:40:41;6.60;99.90
18805;DHT22;9530;48.930;9.526;2023-03-01T11:43:18;6.50;99.90
18805;DHT22;9530;48.930;9.526;2023-03-01T11:45:58;6.60;99.90
18805;DHT22;9530;48.930;9.526;2023-03-01T11:48:40;6.60;99.90
18805;DHT22;9530;48.930;9.526;2023-03-01T11:51:19;6.70;99.90
18805;DHT22;9530;48.930;9.526;2023-03-01T11:54:06;6.90;99.90
18805;DHT22;9530;48.930;9.526;2023-03-01T11:56:38;6.90;99.90
18805;DHT22;9530;48.930;9.526;2023-03-01T11:59:27;6.90;99.90
18805;DHT22;9530;48.930;9.526;2023-03-01T12:02:14;6.90;99.90
18805;DHT22;9530;48.930;9.526;2023-03-01T12:04:59;7.10;99.90
18805;DHT22;9530;48.930;9.526;2023-03-01T12:07:37;7.20;99.90
18805;DHT22;9530;48.930;9.526;2023-03-01T12:10:23;7.20;99.90
18805;DHT22;9530;48.930;9.526;2023-03-01T12:13:05;7.20;99.90
18805;DHT22;9530;48.930;9.526;2023-03-01T12:15:52;7.30;99.90
18805;DHT22;9530;48.930;9.526;2023-03-01T12:18:51;7.40;99.90
18805;DHT22;9530;48.930;9.526;2023-03-01T12:21:33;7.40;99.90
18805;DHT22;9530;48.930;9.526;2023-03-01T12:24:21;7.40;99.90
18805;DHT22;9530;48.930;9.526;2023-03-01T12:27:01;7.60;99.90
18805;DHT22;9530;48.930;9.526;2023-03-01T12:29:34;7.60;99.90
18805;DHT22;9530;48.930;9.526;2023-03-01T12:32:25;7.60;99.90
18805;DHT22;9530;48.930;9.526;2023-03-01T12:35:20;7.70;99.90
18805;DHT22;9530;48.930;9.526;2023-03-01T12:37:55;7.50;99.90
18805;DHT22;9530;48.930;9.526;2023-03-01T12:40:33;7.60;99.90
18805;DHT22;9530;48.930;9.526;2023-03-01T12:43:15;7.40;99.90
18805;DHT22;9530;48.930;9.526;2023-03-01T12:48:46;7.60;99.90
18805;DHT22;9530;48.930;9.526;2023-03-01T12:51:17;7.60;99.90
18805;DHT22;9530;48.930;9.526;2023-03-01T12:53:47;7.60;99.90
18805;DHT22;9530;48.930;9.526;2023-03-01T12:56:17;7.60;99.90
18805;DHT22;9530;48.930;9.526;2023-03-01T12:58:55;7.50;99.90
18805;DHT22;9530;48.930;9.526;2023-03-01T13:01:36;7.40;99.90
18805;DHT22;9530;48.930;9.526;2023-03-01T13:04:26;7.40;99.90
18805;DHT22;9530;48.930;9.526;2023-03-01T13:07:02;7.40;99.90
18805;DHT22;9530;48.930;9.526;2023-03-01T13:09:35;7.40;99.90
18805;DHT22;9530;48.930;9.526;2023-03-01T13:12:04;7.40;99.90
18805;DHT22;9530;48.930;9.526;2023-03-01T13:14:54;7.50;99.90
18805;DHT22;9530;48.930;9.526;2023-03-01T13:17:40;7.60;99.90
18805;DHT22;9530;48.930;9.526;2023-03-01T13:20:16;7.60;99.90
18805;DHT22;9530;48.930;9.526;2023-03-01T13:22:45;7.40;99.90
18805;DHT22;9530;48.930;9.526;2023-03-01T13:25:15;7.50;99.90
18805;DHT22;9530;48.930;9.526;2023-03-01T13:27:44;7.50;99.90
18805;DHT22;9530;48.930;9.526;2023-03-01T13:30:41;7.40;99.90
18805;DHT22;9530;48.930;9.526;2023-03-01T13:36:09;7.70;99.90
18805;DHT22;9530;48.930;9.526;2023-03-01T13:38:54;7.60;99.90
18805;DHT22;9530;48.930;9.526;2023-03-01T13:41:50;7.60;99.90
18805;DHT22;9530;48.930;9.526;2023-03-01T13:44:21;7.60;99.90
18805;DHT22;9530;48.930;9.526;2023-03-01T13:46:56;7.70;99.90
18805;DHT22;9530;48.930;9.526;2023-03-01T13:49:27;7.70;99.90
18805;DHT22;9530;48.930;9.526;2023-03-01T13:51:55;7.80;99.90
18805;DHT22;9530;48.930;9.526;2023-03-01T13:54:25;7.90;99.90
18805;DHT22;9530;48.930;9.526;2023-03-01T13:56:53;8.00;99.90
18805;DHT22;9530;48.930;9.526;2023-03-01T13:59:21;7.80;99.90
18805;DHT22;9530;48.930;9.526;2023-03-01T14:01:54;7.90;99.90
18805;DHT22;9530;48.930;9.526;2023-03-01T14:04:23;7.80;99.90
18805;DHT22;9530;48.930;9.526;2023-03-01T14:06:51;7.80;99.90
18805;DHT22;9530;48.930;9.526;2023-03-01T14:09:20;7.80;99.90
18805;DHT22;9530;48.930;9.526;2023-03-01T14:12:16;7.80;99.90
18805;DHT22;9530;48.930;9.526;2023-03-01T14:14:54;7.90;99.90
18805;DHT22;9530;48.930;9.526;2023-03-01T14:17:57;7.90;99.90
18805;DHT22;9530;48.930;9.526;2023-03-01T14:20:27;7.90;99.90
18805;DHT22;9530;48.930;9.526;2023-03-01T14:22:57;7.90;99.90
18805;DHT22;9530;48.930;9.526;2023-03-01T14:25:26;7.90;99.90
18805;DHT22;9530;48.930;9.526;2023-03-01T14:27:58;7.90;99.90
18805;DHT22;9530;48.930;9.526;2023-03-01T14:30:27;7.90;99.90
18805;DHT22;9530;48.930;9.526;2023-03-01T14:32:56;7.80;99.90
18805;DHT22;9530;48.930;9.526;2023-03-01T14:35:26;7.90;99.90
18805;DHT22;9530;48.930;9.526;2023-03-01T14:37:53;7.90;99.90
18805;DHT22;9530;48.930;9.526;2023-03-01T14:40:23;7.90;99.90
18805;DHT22;9530;48.930;9.526;2023-03-01T14:42:50;7.90;99.90
18805;DHT22;9530;48.930;9.526;2023-03-01T14:45:18;8.00;99.90
18805;DHT22;9530;48.930;9.526;2023-03-01T14:47:46;8.10;99.90
18805;DHT22;9530;48.930;9.526;2023-03-01T14:50:21;8.00;99.90
18805;DHT22;9530;48.930;9.526;2023-03-01T14:52:52;7.90;99.90
18805;DHT22;9530;48.930;9.526;2023-03-01T14:55:21;7.80;99.90
18805;DHT22;9530;48.930;9.526;2023-03-01T14:57:50;7.80;99.90
18805;DHT22;9530;48.930;9.526;2023-03-01T15:00:20;7.80;99.90
18805;DHT22;9530;48.930;9.526;2023-03-01T15:02:48;7.90;99.90
18805;DHT22;9530;48.930;9.526;2023-03-01T15:05:31;7.80;99.90
18805;DHT22;9530;48.930;9.526;2023-03-01T15:07:59;7.80;99.90
18805;DHT22;9530;48.930;9.526;2023-03-01T15:10:28;7.80;99.90
18805;DHT22;9530;48.930;9.526;2023-03-01T15:12:55;7.90;99.90
18805;DHT22;9530;48.930;9.526;2023-03-01T15:15:35;8.00;99.90
18805;DHT22;9530;48.930;9.526;2023-03-01T15:18:05;8.10;99.90
18805;DHT22;9530;48.930;9.526;2023-03-01T15:20:34;8.20;99.90
18805;DHT22;9530;48.930;9.526;2023-03-01T15:23:02;8.20;99.90
18805;DHT22;9530;48.930;9.526;2023-03-01T15:25:30;8.20;99.90
18805;DHT22;9530;48.930;9.526;2023-03-01T15:28:00;8.10;99.90
18805;DHT22;9530;48.930;9.526;2023-03-01T15:30:30;8.10;99.90
18805;DHT22;9530;48.930;9.526;2023-03-01T15:33:19;8.20;99.90
18805;DHT22;9530;48.930;9.526;2023-03-01T15:35:49;8.10;99.90
18805;DHT22;9530;48.930;9.526;2023-03-01T15:38:32;7.90;99.90
18805;DHT22;9530;48.930;9.526;2023-03-01T15:41:00;8.00;99.90
18805;DHT22;9530;48.930;9.526;2023-03-01T15:43:44;8.00;99.90
18805;DHT22;9530;48.930;9.526;2023-03-01T15:46:20;7.90;99.90
18805;DHT22;9530;48.930;9.526;2023-03-01T15:48:50;7.90;99.90
18805;DHT22;9530;48.930;9.526;2023-03-01T15:51:22;7.90;99.90
18805;DHT22;9530;48.930;9.526;2023-03-01T15:53:55;7.80;99.90
18805;DHT22;9530;48.930;9.526;2023-03-01T15:56:23;7.80;99.90
18805;DHT22;9530;48.930;9.526;2023-03-01T15:58:50;7.90;99.90
18805;DHT22;9530;48.930;9.526;2023-03-01T16:01:17;7.90;99.90
18805;DHT22;9530;48.930;9.526;2023-03-01T16:03:44;7.80;99.90
18805;DHT22;9530;48.930;9.526;2023-03-01T16:06:11;7.80;99.90
18805;DHT22;9530;48.930;9.526;2023-03-01T16:08:40;7.80;99.90
18805;DHT22;9530;48.930;9.526;2023-03-01T16:11:14;7.80;99.90
18805;DHT22;9530;48.930;9.526;2023-03-01T16:13:42;7.80;99.90
18805;DHT22;9530;48.930;9.526;2023-03-01T16:16:10;7.80;99.90
18805;DHT22;9530;48.930;9.526;2023-03-01T16:18:40;8.50;99.90
18805;DHT22;9530;48.930;9.526;2023-03-01T16:21:11;9.20;99.90
18805;DHT22;9530;48.930;9.526;2023-03-01T16:23:40;9.70;99.90
18805;DHT22;9530;48.930;9.526;2023-03-01T16:26:06;10.20;99.90
18805;DHT22;9530;48.930;9.526;2023-03-01T16:28:33;10.40;99.90
18805;DHT22;9530;48.930;9.526;2023-03-01T16:31:00;10.40;99.90
18805;DHT22;9530;48.930;9.526;2023-03-01T16:33:27;10.40;99.90
18805;DHT22;9530;48.930;9.526;2023-03-01T16:35:54;10.30;99.90
18805;DHT22;9530;48.930;9.526;2023-03-01T16:38:20;9.90;99.90
18805;DHT22;9530;48.930;9.526;2023-03-01T16:40:50;9.20;99.90
18805;DHT22;9530;48.930;9.526;2023-03-01T16:43:17;8.70;99.90
18805;DHT22;9530;48.930;9.526;2023-03-01T16:45:44;7.90;99.90
18805;DHT22;9530;48.930;9.526;2023-03-01T16:48:12;7.60;99.90
18805;DHT22;9530;48.930;9.526;2023-03-01T16:50:39;7.10;99.90
18805;DHT22;9530;48.930;9.526;2023-03-01T16:53:06;7.00;99.90